LEAM Airport Information

Runway Information
Runway 08 Length 10499 ft width 148 ft
Elevation 26 ft Threshold 492 ft Heading 73
Runway 26 Length 10499 ft Width 148 ft
Elevation 70 ft Threshold 0 ft Heading 253
Airport Frequencies
Type APP Name APP Frequency 118.35 MHZ
Type GND Name GND Frequency 121.7 MHZ
Type TWR Name TWR Frequency 118.35 MHZ
Airport Navaids
Type NDB Name Almeria Frequency 284 KHZ
Type NDB Name Almeria Frequency 310 KHZ
Type VOR-DME Name Almeria Frequency 114100 KHZ
Airport Weather Information & NOTAM
ADDS - METARS form results

(0802 UTC 27 January 2021)
Data provider http://aviationweather.gov/metar/data/
 
METAR text: LEAM 270730Z 00000KT 9999 FEW090 12/11 Q1023
Conditions at: LEAM (ALMERIA AIRPORT , ES) observed 0730 UTC 27 January 2021
Temperature: 12.0°C (54°F)
Dewpoint: 11.0°C (52°F) [RH = 94%]
Pressure (altimeter): 30.21 inches Hg (1023.0 mb)
Winds: calm
Visibility: 6 or more miles (10+ km)
Ceiling: at least 12,000 feet AGL
Clouds: few clouds at 9000 feet AGL
Weather: no significant weather observed at this time

Forecast for: LEAM (ALMERIA AIRPORT , ES)
Text: TAF LEAM 270200Z 2703/2803 VRB02KT CAVOK TX21/2713Z TN12/2705Z
Forecast period: 0300 UTC 27 January 2021 to 0300 UTC 28 January 2021
Forecast type: FROM: standard forecast or significant change
Winds: variable direction winds at 2 MPH (2 knots; 1.0 m/s)
Visibility: 6 or more miles (10+ km)
Ceiling: unknown
Clouds: missing
Weather: no significant weather forecast for this period